createdAt,value
2019-01-27T00:00:33.139Z,4.00
2019-01-27T00:01:33.162Z,4.00
2019-01-27T00:02:33.115Z,4.00
2019-01-27T00:03:33.171Z,4.00
2019-01-27T00:04:33.104Z,4.00
2019-01-27T00:05:33.087Z,4.00
2019-01-27T00:06:33.077Z,4.00
2019-01-27T00:07:33.085Z,4.00
2019-01-27T00:08:33.052Z,4.00
2019-01-27T00:09:33.045Z,4.00
2019-01-27T00:10:33.031Z,4.00
2019-01-27T00:11:33.017Z,4.00
2019-01-27T00:12:33.048Z,4.00
2019-01-27T00:13:32.996Z,4.00
2019-01-27T00:14:32.987Z,4.00
2019-01-27T00:15:32.976Z,4.00
2019-01-27T00:16:32.964Z,4.00
2019-01-27T00:17:32.953Z,4.00
2019-01-27T00:18:32.967Z,4.00
2019-01-27T00:19:32.934Z,4.00
2019-01-27T00:20:32.921Z,4.00
2019-01-27T00:21:32.909Z,4.00
2019-01-27T00:22:32.901Z,4.00
2019-01-27T00:23:32.927Z,4.00
2019-01-27T00:24:32.878Z,4.00
2019-01-27T00:25:32.872Z,4.00
2019-01-27T00:26:32.856Z,4.00
2019-01-27T00:27:32.869Z,4.00
2019-01-27T00:28:32.833Z,4.00
2019-01-27T00:29:32.876Z,4.00
2019-01-27T00:30:32.814Z,4.00
2019-01-27T00:31:32.800Z,4.00
2019-01-27T00:32:32.792Z,4.00
2019-01-27T00:33:32.782Z,4.00
2019-01-27T00:34:32.768Z,4.00
2019-01-27T00:35:32.785Z,4.00
2019-01-27T00:36:32.747Z,4.00
2019-01-27T00:37:32.809Z,4.00
2019-01-27T00:38:32.725Z,4.00
2019-01-27T00:39:32.719Z,4.00
2019-01-27T00:40:32.730Z,4.00
2019-01-27T00:41:32.692Z,4.00
2019-01-27T00:42:32.703Z,4.00
2019-01-27T00:43:32.672Z,4.00
2019-01-27T00:44:32.659Z,4.00
2019-01-27T00:45:32.689Z,4.00
2019-01-27T00:46:32.638Z,4.00
2019-01-27T00:47:32.626Z,4.00
2019-01-27T00:48:32.618Z,4.00
2019-01-27T00:49:32.603Z,4.00
2019-01-27T00:50:32.597Z,4.00
2019-01-27T00:51:32.622Z,4.00
2019-01-27T00:52:32.570Z,4.00
2019-01-27T00:53:32.561Z,4.00
2019-01-27T00:54:32.551Z,4.00
2019-01-27T00:55:32.547Z,4.00
2019-01-27T00:56:32.530Z,4.00
2019-01-27T00:57:32.571Z,4.00
2019-01-27T00:58:32.506Z,4.00
2019-01-27T00:59:32.498Z,4.00
2019-01-27T01:00:32.488Z,4.00
2019-01-27T01:01:32.474Z,4.00
2019-01-27T01:02:32.493Z,4.00
2019-01-27T01:03:32.453Z,4.00
2019-01-27T01:04:32.443Z,4.00
2019-01-27T01:05:32.435Z,4.00
2019-01-27T01:06:32.418Z,4.00
2019-01-27T01:07:32.443Z,4.00
2019-01-27T01:08:32.402Z,4.00
2019-01-27T01:09:32.390Z,4.00
2019-01-27T01:10:32.376Z,4.00
2019-01-27T01:11:32.364Z,4.00
2019-01-27T01:12:32.354Z,4.00
2019-01-27T01:13:32.379Z,4.00
2019-01-27T01:14:32.332Z,4.00
2019-01-27T01:15:32.325Z,4.00
2019-01-27T01:16:32.309Z,4.00
2019-01-27T01:17:32.301Z,4.00
2019-01-27T01:18:32.302Z,4.00
2019-01-27T01:19:32.322Z,4.00
2019-01-27T01:20:32.272Z,4.00
2019-01-27T01:21:32.256Z,4.00
2019-01-27T01:22:32.244Z,4.00
2019-01-27T01:23:32.237Z,4.00
2019-01-27T01:24:32.263Z,4.00
2019-01-27T01:25:32.213Z,4.00
2019-01-27T01:26:32.201Z,4.00
2019-01-27T01:27:32.190Z,4.00
2019-01-27T01:28:32.183Z,4.00
2019-01-27T01:29:32.169Z,4.00
2019-01-27T01:30:32.186Z,4.00
2019-01-27T01:31:32.166Z,4.00
2019-01-27T01:32:32.140Z,4.00
2019-01-27T01:33:32.126Z,4.00
2019-01-27T01:34:32.118Z,4.00
2019-01-27T01:35:32.129Z,4.00
2019-01-27T01:36:32.090Z,4.00
2019-01-27T01:37:32.081Z,4.00
2019-01-27T01:38:32.071Z,4.00
2019-01-27T01:39:32.059Z,4.00
2019-01-27T01:40:32.092Z,4.00
2019-01-27T01:41:32.054Z,4.00
2019-01-27T01:42:32.027Z,4.00
2019-01-27T01:43:32.015Z,4.00
2019-01-27T01:44:32.004Z,4.00
2019-01-27T01:45:32.032Z,4.00
2019-01-27T01:46:31.983Z,4.00
2019-01-27T01:47:31.973Z,4.00
2019-01-27T01:48:31.960Z,4.00
2019-01-27T01:49:31.950Z,4.00
2019-01-27T01:50:31.942Z,4.00
2019-01-27T01:51:31.966Z,4.00
2019-01-27T01:52:31.921Z,4.00
2019-01-27T01:53:31.909Z,4.00
2019-01-27T01:54:31.896Z,4.00
2019-01-27T01:55:31.891Z,4.00
2019-01-27T01:56:31.914Z,4.00
2019-01-27T01:57:31.893Z,4.00
2019-01-27T01:58:31.852Z,4.00
2019-01-27T01:59:31.843Z,4.00
2019-01-27T02:00:31.834Z,4.00
2019-01-27T02:01:31.820Z,4.00
2019-01-27T02:02:31.835Z,4.00
2019-01-27T02:03:31.802Z,4.00
2019-01-27T02:04:31.795Z,4.00
2019-01-27T02:05:31.778Z,4.00
2019-01-27T02:06:31.770Z,4.00
2019-01-27T02:07:31.796Z,4.00
2019-01-27T02:08:31.746Z,4.00
2019-01-27T02:09:31.740Z,4.00
2019-01-27T02:10:31.723Z,4.00
2019-01-27T02:11:31.714Z,4.00
2019-01-27T02:12:31.758Z,4.00
2019-01-27T02:13:31.733Z,4.00
2019-01-27T02:14:31.685Z,4.00
2019-01-27T02:15:31.670Z,4.00
2019-01-27T02:16:31.659Z,4.00
2019-01-27T02:17:31.651Z,4.00
2019-01-27T02:18:31.639Z,4.00
2019-01-27T02:19:31.654Z,4.00
2019-01-27T02:20:31.617Z,4.00
2019-01-27T02:21:31.608Z,4.00
2019-01-27T02:22:31.597Z,4.00
2019-01-27T02:23:31.587Z,4.00
2019-01-27T02:24:31.602Z,4.00
2019-01-27T02:25:31.563Z,4.00
2019-01-27T02:26:31.554Z,4.00
2019-01-27T02:27:31.544Z,4.00
2019-01-27T02:28:31.532Z,4.00
2019-01-27T02:29:31.556Z,4.00
2019-01-27T02:30:31.513Z,4.00
2019-01-27T02:31:31.500Z,4.00
2019-01-27T02:32:31.491Z,4.00
2019-01-27T02:33:31.478Z,4.00
2019-01-27T02:34:31.468Z,4.00
2019-01-27T02:35:31.485Z,4.00
2019-01-27T02:36:31.449Z,4.00
2019-01-27T02:37:31.437Z,4.00
2019-01-27T02:38:31.425Z,4.00
2019-01-27T02:39:31.418Z,4.00
2019-01-27T02:40:31.432Z,4.00
2019-01-27T02:41:31.400Z,4.00
2019-01-27T02:42:31.383Z,4.00
2019-01-27T02:43:31.431Z,4.00
2019-01-27T02:44:31.362Z,4.00
2019-01-27T02:45:31.393Z,4.00
2019-01-27T02:46:31.343Z,4.00
2019-01-27T02:47:31.336Z,4.00
2019-01-27T02:48:31.319Z,4.00
2019-01-27T02:49:31.311Z,4.00
2019-01-27T02:50:31.304Z,4.00
2019-01-27T02:51:31.319Z,4.00
2019-01-27T02:52:31.278Z,4.00
2019-01-27T02:53:31.268Z,4.00
2019-01-27T02:54:31.257Z,4.00
2019-01-27T02:55:31.246Z,4.00
2019-01-27T02:56:31.275Z,4.00
2019-01-27T02:57:31.224Z,4.00
2019-01-27T02:58:31.215Z,4.00
2019-01-27T02:59:31.204Z,4.00
2019-01-27T03:00:31.193Z,4.00
2019-01-27T03:01:31.183Z,4.00
2019-01-27T03:02:31.197Z,4.00
2019-01-27T03:03:31.198Z,4.00
2019-01-27T03:04:31.153Z,4.00
2019-01-27T03:05:31.143Z,4.00
2019-01-27T03:06:31.139Z,4.00
2019-01-27T03:07:31.159Z,4.00
2019-01-27T03:08:31.111Z,4.00
2019-01-27T03:09:31.098Z,4.00
2019-01-27T03:10:31.087Z,4.00
2019-01-27T03:11:31.079Z,4.00
2019-01-27T03:12:31.067Z,4.00
2019-01-27T03:13:31.102Z,4.00
2019-01-27T03:14:31.046Z,4.00
2019-01-27T03:15:31.037Z,4.00
2019-01-27T03:16:31.028Z,4.00
2019-01-27T03:17:31.017Z,4.00
2019-01-27T03:18:31.006Z,4.00
2019-01-27T03:19:31.036Z,4.00
2019-01-27T03:20:30.983Z,4.00
2019-01-27T03:21:30.974Z,4.00
2019-01-27T03:22:30.965Z,4.00
2019-01-27T03:23:30.963Z,4.00
2019-01-27T03:24:30.941Z,4.00
2019-01-27T03:25:31.002Z,4.00
2019-01-27T03:26:30.921Z,4.00
2019-01-27T03:27:30.915Z,4.00
2019-01-27T03:28:30.902Z,4.00
2019-01-27T03:29:30.892Z,4.00
2019-01-27T03:30:30.906Z,4.00
2019-01-27T03:31:30.877Z,4.00
2019-01-27T03:32:30.890Z,4.00
2019-01-27T03:33:30.847Z,4.00
2019-01-27T03:34:30.841Z,4.00
2019-01-27T03:35:30.870Z,4.00
2019-01-27T03:36:30.817Z,4.00
2019-01-27T03:37:30.808Z,4.00
2019-01-27T03:38:30.796Z,4.00
2019-01-27T03:39:30.785Z,4.00
2019-01-27T03:40:30.775Z,4.00
2019-01-27T03:41:30.799Z,4.00
2019-01-27T03:42:30.754Z,4.00
2019-01-27T03:43:30.742Z,4.00
2019-01-27T03:44:30.732Z,4.00
2019-01-27T03:45:30.722Z,4.00
2019-01-27T03:46:30.729Z,4.00
2019-01-27T03:47:30.737Z,4.00
2019-01-27T03:48:30.691Z,4.00
2019-01-27T03:49:30.686Z,4.00
2019-01-27T03:50:30.670Z,4.00
2019-01-27T03:51:30.659Z,4.00
2019-01-27T03:52:30.648Z,4.00
2019-01-27T03:53:30.672Z,4.00
2019-01-27T03:54:30.626Z,4.00
2019-01-27T03:55:30.614Z,4.00
2019-01-27T03:56:30.604Z,4.00
2019-01-27T03:57:30.592Z,4.00
2019-01-27T03:58:30.586Z,4.00
2019-01-27T03:59:30.610Z,4.00
2019-01-27T04:00:30.561Z,4.00
2019-01-27T04:01:30.552Z,4.00
2019-01-27T04:02:30.540Z,4.00
2019-01-27T04:03:30.540Z,4.00
2019-01-27T04:04:30.520Z,0.00
2019-01-27T04:05:30.549Z,0.00
2019-01-27T04:06:30.497Z,0.00
2019-01-27T04:07:30.494Z,0.00
2019-01-27T04:08:30.481Z,0.00
2019-01-27T04:09:30.479Z,0.00
2019-01-27T04:10:30.498Z,0.00
2019-01-27T04:11:30.446Z,0.00
2019-01-27T04:12:30.437Z,0.00
2019-01-27T04:13:30.425Z,0.00
2019-01-27T04:14:30.427Z,0.00
2019-01-27T04:15:30.404Z,0.00
2019-01-27T04:16:30.424Z,0.00
2019-01-27T04:17:30.384Z,0.00
2019-01-27T04:18:30.374Z,0.00
2019-01-27T04:19:30.364Z,0.00
2019-01-27T04:20:30.354Z,0.00
2019-01-27T04:21:30.380Z,0.00
2019-01-27T04:22:30.334Z,0.00
2019-01-27T04:23:30.321Z,0.00
2019-01-27T04:24:30.309Z,0.00
2019-01-27T04:25:30.307Z,0.00
2019-01-27T04:26:30.288Z,0.00
2019-01-27T04:27:30.315Z,0.00
2019-01-27T04:28:30.268Z,0.00
2019-01-27T04:29:30.256Z,0.00
2019-01-27T04:30:30.249Z,0.00
2019-01-27T04:31:30.238Z,0.00
2019-01-27T04:32:30.234Z,0.00
2019-01-27T04:33:30.251Z,0.00
2019-01-27T04:34:30.205Z,0.00
2019-01-27T04:35:30.193Z,0.00
2019-01-27T04:36:30.183Z,0.00
2019-01-27T04:37:30.177Z,0.00
2019-01-27T04:38:30.163Z,0.00
2019-01-27T04:39:30.185Z,0.00
2019-01-27T04:40:30.141Z,0.00
2019-01-27T04:41:30.131Z,0.00
2019-01-27T04:42:30.141Z,0.00
2019-01-27T04:43:30.117Z,0.00
2019-01-27T04:44:30.101Z,0.00
2019-01-27T04:45:30.142Z,0.00
2019-01-27T04:46:30.080Z,0.00
2019-01-27T04:47:30.068Z,0.00
2019-01-27T04:48:30.055Z,0.00
2019-01-27T04:49:30.045Z,0.00
2019-01-27T04:50:30.061Z,0.00
2019-01-27T04:51:30.029Z,0.00
2019-01-27T04:52:30.014Z,0.00
2019-01-27T04:53:30.001Z,0.00
2019-01-27T04:54:29.996Z,0.00
2019-01-27T04:55:30.024Z,0.00
2019-01-27T04:56:29.971Z,0.00
2019-01-27T04:57:29.964Z,0.00
2019-01-27T04:58:29.949Z,0.00
2019-01-27T04:59:29.939Z,0.00
2019-01-27T05:00:29.947Z,0.00
2019-01-27T05:01:29.954Z,0.00
2019-01-27T05:02:29.909Z,0.00
2019-01-27T05:03:29.901Z,0.00
2019-01-27T05:04:29.887Z,0.00
2019-01-27T05:05:29.883Z,0.00
2019-01-27T05:06:29.871Z,0.00
2019-01-27T05:07:29.892Z,0.00
2019-01-27T05:08:29.845Z,0.00
2019-01-27T05:09:29.834Z,0.00
2019-01-27T05:10:29.824Z,0.00
2019-01-27T05:11:29.813Z,0.00
2019-01-27T05:12:29.802Z,0.00
2019-01-27T05:13:29.828Z,0.00
2019-01-27T05:14:29.781Z,0.00
2019-01-27T05:15:29.778Z,0.00
2019-01-27T05:16:29.761Z,0.00
2019-01-27T05:17:29.748Z,0.00
2019-01-27T05:18:29.739Z,0.00
2019-01-27T05:19:29.765Z,0.00
2019-01-27T05:20:29.718Z,0.00
2019-01-27T05:21:29.705Z,0.00
2019-01-27T05:22:29.698Z,0.00
2019-01-27T05:23:29.686Z,0.00
2019-01-27T05:24:29.676Z,0.00
2019-01-27T05:25:29.692Z,0.00
2019-01-27T05:26:29.655Z,0.00
2019-01-27T05:27:29.644Z,0.00
2019-01-27T05:28:29.647Z,0.00
2019-01-27T05:29:29.622Z,0.00
2019-01-27T05:30:29.636Z,0.00
2019-01-27T05:31:29.603Z,0.00
2019-01-27T05:32:29.591Z,0.00
2019-01-27T05:33:29.579Z,0.00
2019-01-27T05:34:29.570Z,0.00
2019-01-27T05:35:29.583Z,0.00
2019-01-27T05:36:29.548Z,0.00
2019-01-27T05:37:29.538Z,0.00
2019-01-27T05:38:29.526Z,0.00
2019-01-27T05:39:29.516Z,0.00
2019-01-27T05:40:29.532Z,0.00
2019-01-27T05:41:29.497Z,0.00
2019-01-27T05:42:29.487Z,0.00
2019-01-27T05:43:29.472Z,0.00
2019-01-27T05:44:29.462Z,0.00
2019-01-27T05:45:29.486Z,0.00
2019-01-27T05:46:29.442Z,0.00
2019-01-27T05:47:29.431Z,0.00
2019-01-27T05:48:29.421Z,0.00
2019-01-27T05:49:29.410Z,0.00
2019-01-27T05:50:29.399Z,0.00
2019-01-27T05:51:29.444Z,0.00
2019-01-27T05:52:29.378Z,0.00
2019-01-27T05:53:29.367Z,0.00
2019-01-27T05:54:29.356Z,0.00
2019-01-27T05:55:29.348Z,0.00
2019-01-27T05:56:29.336Z,0.00
2019-01-27T05:57:29.370Z,0.00
2019-01-27T05:58:29.315Z,0.00
2019-01-27T05:59:29.305Z,0.00
2019-01-27T06:00:29.379Z,0.00
2019-01-27T06:01:29.283Z,0.00
2019-01-27T06:02:29.276Z,0.00
2019-01-27T06:03:29.286Z,0.00
2019-01-27T06:04:29.251Z,0.00
2019-01-27T06:05:29.242Z,0.00
2019-01-27T06:06:29.231Z,0.00
2019-01-27T06:07:29.218Z,0.00
2019-01-27T06:08:29.240Z,0.00
2019-01-27T06:09:29.235Z,0.00
2019-01-27T06:10:29.188Z,0.00
2019-01-27T06:11:29.177Z,0.00
2019-01-27T06:12:29.165Z,0.00
2019-01-27T06:13:29.190Z,0.00
2019-01-27T06:14:29.146Z,0.00
2019-01-27T06:15:29.140Z,0.00
2019-01-27T06:16:29.123Z,0.00
2019-01-27T06:17:29.111Z,0.00
2019-01-27T06:18:29.103Z,0.00
2019-01-27T06:19:29.129Z,0.00
2019-01-27T06:20:29.080Z,0.00
2019-01-27T06:21:29.071Z,0.00
2019-01-27T06:22:29.061Z,0.00
2019-01-27T06:23:29.049Z,0.00
2019-01-27T06:24:29.041Z,0.00
2019-01-27T06:25:29.094Z,0.00
2019-01-27T06:26:29.022Z,0.00
2019-01-27T06:27:29.018Z,0.00
2019-01-27T06:28:28.996Z,0.00
2019-01-27T06:29:28.988Z,0.00
2019-01-27T06:30:29.002Z,0.00
2019-01-27T06:31:28.963Z,0.00
2019-01-27T06:32:28.953Z,0.00
2019-01-27T06:33:28.944Z,0.00
2019-01-27T06:34:28.941Z,0.00
2019-01-27T06:35:28.957Z,0.00
2019-01-27T06:36:28.947Z,4.00
2019-01-27T06:37:28.909Z,4.00
2019-01-27T06:38:28.896Z,4.00
2019-01-27T06:39:28.880Z,0.00
2019-01-27T06:40:28.881Z,4.00
2019-01-27T06:41:28.886Z,4.00
2019-01-27T06:42:28.851Z,4.00
2019-01-27T06:43:28.835Z,4.00
2019-01-27T06:44:28.826Z,8.00
2019-01-27T06:45:28.815Z,4.00
2019-01-27T06:46:28.832Z,8.00
2019-01-27T06:47:28.800Z,8.00
2019-01-27T06:48:28.784Z,12.00
2019-01-27T06:49:28.772Z,12.00
2019-01-27T06:50:28.765Z,16.00
2019-01-27T06:51:28.792Z,16.00
2019-01-27T06:52:28.744Z,16.00
2019-01-27T06:53:28.775Z,20.00
2019-01-27T06:54:28.793Z,24.00
2019-01-27T06:55:28.710Z,24.00
2019-01-27T06:56:28.700Z,24.00
2019-01-27T06:57:28.715Z,28.00
2019-01-27T06:58:28.678Z,32.00
2019-01-27T06:59:28.669Z,32.00
2019-01-27T07:00:28.657Z,36.00
2019-01-27T07:01:28.684Z,40.00
2019-01-27T07:02:29.698Z,40.00
2019-01-27T07:03:28.638Z,40.00
2019-01-27T07:04:28.653Z,44.00
2019-01-27T07:05:28.605Z,48.00
2019-01-27T07:06:28.596Z,52.00
2019-01-27T07:07:28.609Z,52.00
2019-01-27T07:08:28.573Z,60.00
2019-01-27T07:09:28.566Z,64.00
2019-01-27T07:10:28.554Z,68.00
2019-01-27T07:11:28.545Z,68.00
2019-01-27T07:12:28.569Z,72.00
2019-01-27T07:13:28.521Z,72.00
2019-01-27T07:14:28.514Z,80.00
2019-01-27T07:15:29.478Z,80.00
2019-01-27T07:16:28.525Z,80.00
2019-01-27T07:17:28.531Z,76.00
2019-01-27T07:18:29.500Z,68.00
2019-01-27T07:19:28.505Z,72.00
2019-01-27T07:20:28.976Z,76.00
2019-01-27T07:21:30.481Z,84.00
2019-01-27T07:22:28.978Z,84.00
2019-01-27T07:23:28.498Z,88.00
2019-01-27T07:24:29.920Z,100.00
2019-01-27T07:25:28.989Z,112.00
2019-01-27T07:26:28.432Z,128.00
2019-01-27T07:27:28.438Z,128.00
2019-01-27T07:28:28.426Z,128.00
2019-01-27T07:29:28.554Z,140.00
2019-01-27T07:30:28.479Z,140.00
2019-01-27T07:31:28.978Z,144.00
2019-01-27T07:32:28.371Z,156.00
2019-01-27T07:33:28.378Z,160.00
2019-01-27T07:34:28.389Z,160.00
2019-01-27T07:35:28.397Z,164.00
2019-01-27T07:36:28.318Z,168.00
2019-01-27T07:37:28.980Z,180.00
2019-01-27T07:38:28.313Z,176.00
2019-01-27T07:39:28.980Z,168.00
2019-01-27T07:40:28.344Z,164.00
2019-01-27T07:41:28.978Z,156.00
2019-01-27T07:42:28.980Z,160.00
2019-01-27T07:43:28.245Z,172.00
2019-01-27T07:44:28.980Z,184.00
2019-01-27T07:45:28.260Z,200.00
2019-01-27T07:46:28.272Z,216.00
2019-01-27T07:47:28.982Z,236.00
2019-01-27T07:48:28.983Z,248.00
2019-01-27T07:49:29.483Z,248.00
2019-01-27T07:50:28.268Z,240.00
2019-01-27T07:51:28.197Z,240.00
2019-01-27T07:52:28.998Z,244.00
2019-01-27T07:53:28.137Z,248.00
2019-01-27T07:54:28.119Z,248.00
2019-01-27T07:55:28.981Z,244.00
2019-01-27T07:56:28.983Z,244.00
2019-01-27T07:57:28.144Z,228.00
2019-01-27T07:58:28.090Z,200.00
2019-01-27T07:59:28.981Z,180.00
2019-01-27T08:00:28.062Z,160.00
2019-01-27T08:01:28.985Z,140.00
2019-01-27T08:02:28.982Z,116.00
2019-01-27T08:03:28.182Z,104.00
2019-01-27T08:04:28.054Z,92.00
2019-01-27T08:05:28.022Z,88.00
2019-01-27T08:06:27.967Z,92.00
2019-01-27T08:07:27.953Z,116.00
2019-01-27T08:08:27.973Z,148.00
2019-01-27T08:09:27.930Z,168.00
2019-01-27T08:10:27.915Z,176.00
2019-01-27T08:11:27.904Z,192.00
2019-01-27T08:12:27.894Z,216.00
2019-01-27T08:13:27.887Z,236.00
2019-01-27T08:14:27.900Z,256.00
2019-01-27T08:15:27.874Z,284.00
2019-01-27T08:16:27.854Z,300.00
2019-01-27T08:17:27.857Z,316.00
2019-01-27T08:18:27.917Z,376.00
2019-01-27T08:19:27.855Z,444.00
2019-01-27T08:20:27.808Z,540.00
2019-01-27T08:21:27.798Z,636.00
2019-01-27T08:22:27.787Z,656.00
2019-01-27T08:23:27.827Z,624.00
2019-01-27T08:24:27.764Z,600.00
2019-01-27T08:25:27.784Z,600.00
2019-01-27T08:26:27.745Z,604.00
2019-01-27T08:27:27.733Z,604.00
2019-01-27T08:28:27.722Z,640.00
2019-01-27T08:29:27.710Z,680.00
2019-01-27T08:30:27.752Z,672.00
2019-01-27T08:31:27.689Z,680.00
2019-01-27T08:32:27.677Z,708.00
2019-01-27T08:33:27.687Z,704.00
2019-01-27T08:34:27.658Z,680.00
2019-01-27T08:35:27.648Z,696.00
2019-01-27T08:36:27.673Z,748.00
2019-01-27T08:37:27.623Z,784.00
2019-01-27T08:38:27.614Z,772.00
2019-01-27T08:39:27.605Z,756.00
2019-01-27T08:40:27.602Z,708.00
2019-01-27T08:41:27.634Z,640.00
2019-01-27T08:42:27.571Z,620.00
2019-01-27T08:43:27.567Z,624.00
2019-01-27T08:44:27.566Z,624.00
2019-01-27T08:45:27.534Z,624.00
2019-01-27T08:46:27.533Z,564.00
2019-01-27T08:47:27.538Z,504.00
2019-01-27T08:48:27.502Z,480.00
2019-01-27T08:49:27.492Z,448.00
2019-01-27T08:50:27.486Z,412.00
2019-01-27T08:51:27.492Z,404.00
2019-01-27T08:52:27.494Z,396.00
2019-01-27T08:53:27.452Z,360.00
2019-01-27T08:54:27.442Z,312.00
2019-01-27T08:55:27.428Z,288.00
2019-01-27T08:56:27.419Z,276.00
2019-01-27T08:57:27.406Z,296.00
2019-01-27T08:58:27.430Z,308.00
2019-01-27T08:59:27.383Z,340.00
2019-01-27T09:00:27.373Z,420.00
2019-01-27T09:01:27.376Z,488.00
2019-01-27T09:02:27.405Z,644.00
2019-01-27T09:03:27.344Z,824.00
2019-01-27T09:04:27.369Z,1024.00
2019-01-27T09:05:27.318Z,1272.00
2019-01-27T09:06:27.305Z,1484.00
2019-01-27T09:07:27.295Z,1664.00
2019-01-27T09:08:27.285Z,1780.00
2019-01-27T09:09:27.273Z,1752.00
2019-01-27T09:10:27.299Z,1728.00
2019-01-27T09:11:27.254Z,1772.00
2019-01-27T09:12:27.243Z,1852.00
2019-01-27T09:13:27.269Z,2012.00
2019-01-27T09:14:27.244Z,2156.00
2019-01-27T09:15:27.220Z,2188.00
2019-01-27T09:16:27.247Z,2132.00
2019-01-27T09:17:27.215Z,2068.00
2019-01-27T09:18:27.178Z,2012.00
2019-01-27T09:19:27.173Z,1972.00
2019-01-27T09:20:27.161Z,1968.00
2019-01-27T09:21:27.145Z,1904.00
2019-01-27T09:22:27.158Z,1816.00
2019-01-27T09:23:27.128Z,1764.00
2019-01-27T09:24:27.114Z,1712.00
2019-01-27T09:25:27.103Z,1652.00
2019-01-27T09:26:27.097Z,1616.00
2019-01-27T09:27:27.120Z,1588.00
2019-01-27T09:28:27.078Z,1600.00
2019-01-27T09:29:27.061Z,1624.00
2019-01-27T09:30:27.050Z,1608.00
2019-01-27T09:31:27.040Z,1552.00
2019-01-27T09:32:27.030Z,1432.00
2019-01-27T09:33:27.047Z,1308.00
2019-01-27T09:34:27.037Z,1140.00
2019-01-27T09:35:27.000Z,1120.00
2019-01-27T09:36:26.993Z,1176.00
2019-01-27T09:37:27.039Z,1244.00
2019-01-27T09:38:27.022Z,1276.00
2019-01-27T09:39:26.953Z,1264.00
2019-01-27T09:40:26.943Z,1260.00
2019-01-27T09:41:26.932Z,1300.00
2019-01-27T09:42:26.927Z,1276.00
2019-01-27T09:43:26.920Z,1320.00
2019-01-27T09:44:26.922Z,1312.00
2019-01-27T09:45:26.887Z,1188.00
2019-01-27T09:46:26.899Z,1188.00
2019-01-27T09:47:26.867Z,1204.00
2019-01-27T09:48:26.855Z,1352.00
2019-01-27T09:49:26.880Z,1392.00
2019-01-27T09:50:26.832Z,1436.00
2019-01-27T09:51:27.833Z,1384.00
2019-01-27T09:52:26.829Z,1204.00
2019-01-27T09:53:26.801Z,1032.00
2019-01-27T09:54:26.790Z,780.00
2019-01-27T09:55:26.914Z,596.00
2019-01-27T09:56:26.769Z,592.00
2019-01-27T09:57:26.757Z,696.00
2019-01-27T09:58:26.746Z,724.00
2019-01-27T09:59:26.733Z,880.00
2019-01-27T10:00:26.723Z,1088.00
2019-01-27T10:01:26.814Z,1104.00
2019-01-27T10:02:26.728Z,1056.00
2019-01-27T10:03:36.418Z,880.00
2019-01-27T10:04:26.680Z,852.00
2019-01-27T10:05:26.668Z,936.00
2019-01-27T10:06:26.691Z,1040.00
2019-01-27T10:07:26.646Z,1036.00
2019-01-27T10:08:26.651Z,956.00
2019-01-27T10:09:26.628Z,996.00
2019-01-27T10:10:26.613Z,1192.00
2019-01-27T10:11:26.858Z,1344.00
2019-01-27T10:12:26.631Z,1484.00
2019-01-27T10:13:26.586Z,1420.00
2019-01-27T10:14:26.571Z,1280.00
2019-01-27T10:15:26.558Z,1396.00
2019-01-27T10:16:26.549Z,1776.00
2019-01-27T10:17:26.589Z,1760.00
2019-01-27T10:18:26.528Z,1720.00
2019-01-27T10:19:26.520Z,1760.00
2019-01-27T10:20:26.504Z,1760.00
2019-01-27T10:21:26.493Z,1828.00
2019-01-27T10:22:26.482Z,1944.00
2019-01-27T10:23:26.496Z,2004.00
2019-01-27T10:24:26.464Z,2176.00
2019-01-27T10:25:26.451Z,2384.00
2019-01-27T10:26:26.456Z,2496.00
2019-01-27T10:27:26.436Z,2304.00
2019-01-27T10:28:26.454Z,2024.00
2019-01-27T10:29:26.431Z,1932.00
2019-01-27T10:30:26.399Z,1964.00
2019-01-27T10:31:26.386Z,1956.00
2019-01-27T10:32:26.376Z,1896.00
2019-01-27T10:33:26.363Z,1732.00
2019-01-27T10:34:26.420Z,1616.00
2019-01-27T10:35:26.345Z,1472.00
2019-01-27T10:36:26.333Z,1268.00
2019-01-27T10:37:26.322Z,1268.00
2019-01-27T10:38:26.312Z,1120.00
2019-01-27T10:39:26.301Z,920.00
2019-01-27T10:40:26.354Z,864.00
2019-01-27T10:41:26.283Z,816.00
2019-01-27T10:42:26.268Z,816.00
2019-01-27T10:43:26.259Z,804.00
2019-01-27T10:44:26.251Z,724.00
2019-01-27T10:45:26.283Z,716.00
2019-01-27T10:46:26.302Z,700.00
2019-01-27T10:47:26.226Z,724.00
2019-01-27T10:48:26.212Z,668.00
2019-01-27T10:49:26.196Z,696.00
2019-01-27T10:50:26.186Z,708.00
2019-01-27T10:51:26.236Z,660.00
2019-01-27T10:52:26.166Z,732.00
2019-01-27T10:53:26.166Z,672.00
2019-01-27T10:54:26.155Z,712.00
2019-01-27T10:55:26.131Z,736.00
2019-01-27T10:56:26.159Z,720.00
2019-01-27T10:57:26.113Z,700.00
2019-01-27T10:58:26.101Z,652.00
2019-01-27T10:59:26.088Z,636.00
2019-01-27T11:00:26.099Z,604.00
2019-01-27T11:01:26.082Z,564.00
2019-01-27T11:02:26.140Z,596.00
2019-01-27T11:03:26.047Z,560.00
2019-01-27T11:04:26.035Z,576.00
2019-01-27T11:05:26.050Z,652.00
2019-01-27T11:06:26.015Z,728.00
2019-01-27T11:07:26.040Z,860.00
2019-01-27T11:08:26.001Z,872.00
2019-01-27T11:09:25.982Z,876.00
2019-01-27T11:10:25.971Z,900.00
2019-01-27T11:11:25.960Z,916.00
2019-01-27T11:12:25.949Z,900.00
2019-01-27T11:13:25.976Z,900.00
2019-01-27T11:14:25.926Z,1036.00
2019-01-27T11:15:25.919Z,1232.00
2019-01-27T11:16:25.906Z,1360.00
2019-01-27T11:17:25.894Z,1364.00
2019-01-27T11:18:25.886Z,1396.00
2019-01-27T11:19:25.899Z,1472.00
2019-01-27T11:20:25.867Z,1632.00
2019-01-27T11:21:25.853Z,1544.00
2019-01-27T11:22:25.842Z,1480.00
2019-01-27T11:23:25.831Z,1352.00
2019-01-27T11:24:25.858Z,1472.00
2019-01-27T11:25:25.819Z,1396.00
2019-01-27T11:26:25.878Z,1296.00
2019-01-27T11:27:32.846Z,1200.00
2019-01-27T11:28:26.777Z,1132.00
2019-01-27T11:29:25.773Z,1200.00
2019-01-27T11:30:25.955Z,1308.00
2019-01-27T11:31:25.747Z,1408.00
2019-01-27T11:32:32.767Z,1476.00
2019-01-27T11:33:25.724Z,1612.00
2019-01-27T11:34:25.713Z,1760.00
2019-01-27T11:35:25.742Z,1956.00
2019-01-27T11:36:25.690Z,1996.00
2019-01-27T11:37:25.684Z,2036.00
2019-01-27T11:38:25.671Z,1804.00
2019-01-27T11:39:25.694Z,1404.00
2019-01-27T11:40:25.648Z,1520.00
2019-01-27T11:41:25.661Z,1740.00
2019-01-27T11:42:25.626Z,1748.00
2019-01-27T11:43:25.624Z,2160.00
2019-01-27T11:44:25.604Z,2368.00
2019-01-27T11:45:25.614Z,2216.00
2019-01-27T11:46:25.622Z,2024.00
2019-01-27T11:47:25.576Z,1584.00
2019-01-27T11:48:25.564Z,1228.00
2019-01-27T11:49:25.551Z,1068.00
2019-01-27T11:50:25.545Z,900.00
2019-01-27T11:51:25.534Z,884.00
2019-01-27T11:52:25.576Z,796.00
2019-01-27T11:53:25.509Z,764.00
2019-01-27T11:54:25.500Z,728.00
2019-01-27T11:55:25.489Z,760.00
2019-01-27T11:56:25.480Z,788.00
2019-01-27T11:57:25.468Z,780.00
2019-01-27T11:58:25.494Z,688.00
2019-01-27T11:59:25.449Z,652.00
2019-01-27T12:00:25.437Z,536.00
2019-01-27T12:01:25.426Z,492.00
2019-01-27T12:02:25.415Z,476.00
2019-01-27T12:03:25.404Z,476.00
2019-01-27T12:04:25.431Z,564.00
2019-01-27T12:05:25.396Z,608.00
2019-01-27T12:06:25.378Z,644.00
2019-01-27T12:07:25.363Z,688.00
2019-01-27T12:08:25.351Z,704.00
2019-01-27T12:09:25.348Z,704.00
2019-01-27T12:10:25.353Z,676.00
2019-01-27T12:11:25.321Z,628.00
2019-01-27T12:12:25.314Z,628.00
2019-01-27T12:13:25.300Z,672.00
2019-01-27T12:14:25.287Z,680.00
2019-01-27T12:15:25.315Z,692.00
2019-01-27T12:16:25.267Z,680.00
2019-01-27T12:17:25.255Z,616.00
2019-01-27T12:18:25.244Z,544.00
2019-01-27T12:19:25.233Z,528.00
2019-01-27T12:20:25.233Z,544.00
2019-01-27T12:21:25.252Z,560.00
2019-01-27T12:22:25.202Z,564.00
2019-01-27T12:23:25.193Z,548.00
2019-01-27T12:24:25.223Z,516.00
2019-01-27T12:25:25.174Z,492.00
2019-01-27T12:26:25.159Z,496.00
2019-01-27T12:27:25.174Z,536.00
2019-01-27T12:28:25.154Z,600.00
2019-01-27T12:29:25.595Z,672.00
2019-01-27T12:30:25.119Z,732.00
2019-01-27T12:31:25.108Z,816.00
2019-01-27T12:32:25.130Z,908.00
2019-01-27T12:33:25.085Z,1072.00
2019-01-27T12:34:25.074Z,1280.00
2019-01-27T12:35:25.063Z,1556.00
2019-01-27T12:36:25.052Z,1788.00
2019-01-27T12:37:25.040Z,1772.00
2019-01-27T12:38:25.054Z,1596.00
2019-01-27T12:39:25.025Z,1424.00
2019-01-27T12:40:25.010Z,1308.00
2019-01-27T12:41:25.009Z,1308.00
2019-01-27T12:42:25.025Z,1472.00
2019-01-27T12:43:24.978Z,1684.00
2019-01-27T12:44:24.966Z,1772.00
2019-01-27T12:45:24.957Z,1684.00
2019-01-27T12:46:24.948Z,1664.00
2019-01-27T12:47:24.934Z,1624.00
2019-01-27T12:48:24.961Z,1352.00
2019-01-27T12:49:24.938Z,1212.00
2019-01-27T12:50:24.901Z,1348.00